createdAt,value
2023-09-22T00:04:48.379Z,15.92
2023-09-22T00:09:49.951Z,15.87
2023-09-22T00:14:51.523Z,15.85
2023-09-22T00:19:53.231Z,15.80
2023-09-22T00:24:54.747Z,15.76
2023-09-22T00:29:56.293Z,15.74
2023-09-22T00:34:57.977Z,15.77
2023-09-22T00:39:59.667Z,15.78
2023-09-22T00:45:01.192Z,15.79
2023-09-22T00:50:03.541Z,15.81
2023-09-22T00:55:05.688Z,15.66
2023-09-22T01:00:07.963Z,15.58
2023-09-22T01:05:09.782Z,15.52
2023-09-22T01:10:11.879Z,15.42
2023-09-22T01:15:13.480Z,15.38
2023-09-22T01:20:14.953Z,15.35
2023-09-22T01:25:16.544Z,15.31
2023-09-22T01:30:18.222Z,15.22
2023-09-22T01:35:19.723Z,15.18
2023-09-22T01:40:21.198Z,15.20
2023-09-22T01:45:22.760Z,15.19
2023-09-22T01:50:24.299Z,15.10
2023-09-22T01:55:25.744Z,15.07
2023-09-22T02:00:27.504Z,15.09
2023-09-22T02:05:29.195Z,15.08
2023-09-22T02:10:30.727Z,15.12
2023-09-22T02:15:32.238Z,15.06
2023-09-22T02:20:35.015Z,15.01
2023-09-22T02:25:36.464Z,14.96
2023-09-22T02:30:37.968Z,14.89
2023-09-22T02:35:41.690Z,14.86
2023-09-22T02:40:45.222Z,14.74
2023-09-22T02:45:46.858Z,14.66
2023-09-22T02:50:48.962Z,14.58
2023-09-22T02:55:50.571Z,14.54
2023-09-22T03:00:52.160Z,14.46
2023-09-22T03:05:59.920Z,14.38
2023-09-22T03:11:02.796Z,14.31
2023-09-22T03:16:04.989Z,14.27
2023-09-22T03:21:06.664Z,14.20
2023-09-22T03:26:08.129Z,14.15
2023-09-22T03:31:09.730Z,14.13
2023-09-22T03:36:11.442Z,14.14
2023-09-22T03:41:12.972Z,14.20
2023-09-22T03:46:14.477Z,14.26
2023-09-22T03:51:17.378Z,14.28
2023-09-22T03:56:18.891Z,14.22
2023-09-22T04:01:20.436Z,14.17
2023-09-22T04:06:22.534Z,14.20
2023-09-22T04:11:24.065Z,14.13
2023-09-22T04:16:26.080Z,14.19
2023-09-22T04:21:27.746Z,14.25
2023-09-22T04:26:29.358Z,14.22
2023-09-22T04:31:30.929Z,14.16
2023-09-22T04:36:32.496Z,14.13
2023-09-22T04:41:33.953Z,14.14
2023-09-22T04:46:35.440Z,14.07
2023-09-22T04:51:37.090Z,14.00
2023-09-22T04:56:38.667Z,14.02
2023-09-22T05:01:40.236Z,14.04
2023-09-22T05:06:41.885Z,14.08
2023-09-22T05:11:43.396Z,14.13
2023-09-22T05:16:44.931Z,14.13
2023-09-22T05:21:46.507Z,14.13
2023-09-22T05:26:48.027Z,14.10
2023-09-22T05:31:49.648Z,14.04
2023-09-22T05:36:51.264Z,14.03
2023-09-22T05:41:53.032Z,14.00
2023-09-22T05:46:54.560Z,14.07
2023-09-22T05:51:56.148Z,14.20
2023-09-22T05:56:57.610Z,14.14
2023-09-22T06:01:59.121Z,14.23
2023-09-22T06:07:00.685Z,14.48
2023-09-22T06:12:02.138Z,14.51
2023-09-22T06:17:03.813Z,14.60
2023-09-22T06:22:05.370Z,14.70
2023-09-22T06:27:06.881Z,14.79
2023-09-22T06:32:08.357Z,14.84
2023-09-22T06:37:09.862Z,14.74
2023-09-22T06:42:11.331Z,14.68
2023-09-22T06:47:12.874Z,14.62
2023-09-22T06:52:14.350Z,14.58
2023-09-22T06:57:15.827Z,14.58
2023-09-22T07:02:17.300Z,14.63
2023-09-22T07:07:18.835Z,14.73
2023-09-22T07:12:20.334Z,14.82
2023-09-22T07:17:21.957Z,14.87
2023-09-22T07:22:23.433Z,15.03
2023-09-22T07:27:25.028Z,15.17
2023-09-22T07:32:26.543Z,15.76
2023-09-22T07:37:28.078Z,15.76
2023-09-22T07:42:29.600Z,16.79
2023-09-22T07:47:31.147Z,16.46
2023-09-22T07:52:32.860Z,16.49
2023-09-22T07:57:34.548Z,16.49
2023-09-22T08:02:36.386Z,16.21
2023-09-22T08:07:38.316Z,16.44
2023-09-22T08:12:41.096Z,17.63
2023-09-22T08:17:43.683Z,17.87
2023-09-22T08:22:45.204Z,17.22
2023-09-22T08:27:47.227Z,16.52
2023-09-22T08:32:48.700Z,16.66
2023-09-22T08:37:50.248Z,16.45
2023-09-22T08:42:52.129Z,16.57
2023-09-22T08:47:53.766Z,16.63
2023-09-22T08:52:55.261Z,17.10
2023-09-22T08:57:56.747Z,17.58
2023-09-22T09:03:06.209Z,17.75
2023-09-22T09:08:17.834Z,18.14
2023-09-22T09:13:23.577Z,18.37
2023-09-22T09:18:25.675Z,18.19
2023-09-22T09:23:27.245Z,18.21
2023-09-22T09:28:29.717Z,18.15
2023-09-22T09:33:32.320Z,17.97
2023-09-22T09:38:42.527Z,18.21
2023-09-22T09:43:44.775Z,18.45
2023-09-22T09:48:47.085Z,18.40
2023-09-22T09:53:52.433Z,18.51
2023-09-22T09:58:53.976Z,18.05
2023-09-22T10:03:55.986Z,18.94
2023-09-22T10:08:57.502Z,19.00
2023-09-22T10:13:58.965Z,18.25
2023-09-22T10:19:00.985Z,18.91
2023-09-22T10:24:25.740Z,19.11
2023-09-22T10:29:36.552Z,18.93
2023-09-22T10:34:51.001Z,18.86
2023-09-22T10:40:12.491Z,19.05
2023-09-22T10:45:15.321Z,19.37
2023-09-22T10:50:16.732Z,18.95
2023-09-22T10:55:28.495Z,19.18
2023-09-22T11:00:30.088Z,19.60
2023-09-22T11:05:31.641Z,19.32
2023-09-22T11:10:33.284Z,19.36
2023-09-22T11:15:34.849Z,19.41
2023-09-22T11:20:36.332Z,19.61
2023-09-22T11:25:37.837Z,19.18
2023-09-22T11:30:39.359Z,19.01
2023-09-22T11:35:40.979Z,18.88
2023-09-22T11:40:42.685Z,18.79
2023-09-22T11:45:44.272Z,18.70
2023-09-22T11:50:55.538Z,18.49
2023-09-22T11:55:57.064Z,18.57
2023-09-22T12:00:58.550Z,19.12
2023-09-22T12:06:00.738Z,19.64
2023-09-22T12:11:02.258Z,18.73
2023-09-22T12:16:03.958Z,18.64
2023-09-22T12:21:05.735Z,18.91
2023-09-22T12:26:07.185Z,19.10
2023-09-22T12:31:08.836Z,18.80
2023-09-22T12:36:10.610Z,19.13
2023-09-22T12:41:12.596Z,19.19
2023-09-22T12:46:14.541Z,19.54
2023-09-22T12:51:16.208Z,19.66
2023-09-22T12:56:17.655Z,19.17
2023-09-22T13:01:19.162Z,19.08
2023-09-22T13:06:20.790Z,19.25
2023-09-22T13:11:22.342Z,19.72
2023-09-22T13:16:23.981Z,19.23
2023-09-22T13:21:25.589Z,19.12
2023-09-22T13:26:27.049Z,19.25
2023-09-22T13:31:28.571Z,18.99
2023-09-22T13:36:30.095Z,19.30
2023-09-22T13:41:31.539Z,18.89
2023-09-22T13:46:33.003Z,18.63
2023-09-22T13:51:34.543Z,19.11
2023-09-22T13:56:36.000Z,19.08
2023-09-22T14:01:37.568Z,18.67
2023-09-22T14:06:39.244Z,18.42
2023-09-22T14:11:40.711Z,19.07
2023-09-22T14:16:42.272Z,18.50
2023-09-22T14:21:43.908Z,18.46
2023-09-22T14:26:46.044Z,18.69
2023-09-22T14:31:47.630Z,18.82
2023-09-22T14:36:49.183Z,18.62
2023-09-22T14:41:50.639Z,18.66
2023-09-22T14:46:52.193Z,18.72
2023-09-22T14:51:53.765Z,18.78
2023-09-22T14:56:55.217Z,18.63
2023-09-22T15:01:56.780Z,18.66
2023-09-22T15:06:58.354Z,18.63
2023-09-22T15:12:00.045Z,18.54
2023-09-22T15:17:01.544Z,18.42
2023-09-22T15:22:03.111Z,18.35
2023-09-22T15:27:04.585Z,18.35
2023-09-22T15:32:06.081Z,18.37
2023-09-22T15:37:09.375Z,18.26
2023-09-22T15:42:10.819Z,18.22
2023-09-22T15:47:12.399Z,18.10
2023-09-22T15:52:13.980Z,18.00
2023-09-22T15:57:15.432Z,17.96
2023-09-22T16:02:17.786Z,17.93
2023-09-22T16:07:19.355Z,17.88
2023-09-22T16:12:20.896Z,17.80
2023-09-22T16:17:22.470Z,17.75
2023-09-22T16:22:24.060Z,17.61
2023-09-22T16:27:25.506Z,17.50
2023-09-22T16:32:27.036Z,17.29
2023-09-22T16:37:28.696Z,17.09
2023-09-22T16:42:30.298Z,16.94
2023-09-22T16:47:31.895Z,16.72
2023-09-22T16:52:33.512Z,16.57
2023-09-22T16:57:35.153Z,16.52
2023-09-22T17:02:37.059Z,16.44
2023-09-22T17:07:38.657Z,16.42
2023-09-22T17:12:40.327Z,16.39
2023-09-22T17:17:42.200Z,16.36
2023-09-22T17:22:43.735Z,16.34
2023-09-22T17:27:45.263Z,16.30
2023-09-22T17:32:46.971Z,16.24
2023-09-22T17:37:48.665Z,16.15
2023-09-22T17:42:50.157Z,16.09
2023-09-22T17:47:51.662Z,16.06
2023-09-22T17:52:53.258Z,16.07
2023-09-22T17:57:54.734Z,16.05
2023-09-22T18:02:56.306Z,16.03
2023-09-22T18:07:57.948Z,15.99
2023-09-22T18:12:59.397Z,15.89
2023-09-22T18:18:00.889Z,15.84
2023-09-22T18:23:02.404Z,15.69
2023-09-22T18:28:04.155Z,15.52
2023-09-22T18:33:05.684Z,15.24
2023-09-22T18:38:07.232Z,14.94
2023-09-22T18:43:08.736Z,14.67
2023-09-22T18:48:10.502Z,14.38
2023-09-22T18:53:11.929Z,14.18
2023-09-22T18:58:14.584Z,14.10
2023-09-22T19:03:16.074Z,14.10
2023-09-22T19:08:17.684Z,14.05
2023-09-22T19:13:19.127Z,13.91
2023-09-22T19:18:20.609Z,13.85
2023-09-22T19:23:22.088Z,13.67
2023-09-22T19:28:23.608Z,13.55
2023-09-22T19:33:25.206Z,13.53
2023-09-22T19:38:26.777Z,13.58
2023-09-22T19:43:28.247Z,13.55
2023-09-22T19:48:29.734Z,13.47
2023-09-22T19:53:31.276Z,13.32
2023-09-22T19:58:32.773Z,13.25
2023-09-22T20:03:34.253Z,13.21
2023-09-22T20:08:35.789Z,13.09
2023-09-22T20:13:37.328Z,13.00
2023-09-22T20:18:38.830Z,12.91
2023-09-22T20:23:40.299Z,12.80
2023-09-22T20:28:41.800Z,12.67
2023-09-22T20:33:43.348Z,12.52
2023-09-22T20:38:45.131Z,12.31
2023-09-22T20:43:46.801Z,12.33
2023-09-22T20:48:48.316Z,12.38
2023-09-22T20:53:49.748Z,12.25
2023-09-22T20:58:51.270Z,11.87
2023-09-22T21:03:52.812Z,11.59
2023-09-22T21:08:54.693Z,11.48
2023-09-22T21:13:56.171Z,11.40
2023-09-22T21:18:57.650Z,11.47
2023-09-22T21:23:59.615Z,11.50
2023-09-22T21:29:01.143Z,11.39
2023-09-22T21:34:02.697Z,11.41
2023-09-22T21:39:04.151Z,11.36
2023-09-22T21:44:08.690Z,11.27
2023-09-22T21:49:10.244Z,11.28
2023-09-22T21:54:11.737Z,11.27
2023-09-22T21:59:13.353Z,11.28
2023-09-22T22:04:14.885Z,11.18
2023-09-22T22:09:16.334Z,11.10
2023-09-22T22:14:17.843Z,10.97
2023-09-22T22:19:19.290Z,11.06
2023-09-22T22:24:21.543Z,11.08
2023-09-22T22:29:23.054Z,11.02
2023-09-22T22:34:24.512Z,10.95
2023-09-22T22:39:25.994Z,10.90
2023-09-22T22:44:27.701Z,10.87
2023-09-22T22:49:29.142Z,10.83
2023-09-22T22:54:32.819Z,10.88
2023-09-22T22:59:34.404Z,10.77
2023-09-22T23:04:36.117Z,10.73
2023-09-22T23:09:37.650Z,10.74
2023-09-22T23:14:39.116Z,10.81
2023-09-22T23:19:40.674Z,10.89
2023-09-22T23:24:42.146Z,11.03
2023-09-22T23:29:43.711Z,11.19
2023-09-22T23:34:46.157Z,11.30
2023-09-22T23:39:47.630Z,11.41
2023-09-22T23:44:49.078Z,11.38
2023-09-22T23:49:50.671Z,11.46
2023-09-22T23:54:52.169Z,11.55
2023-09-22T23:59:53.635Z,11.64
